Time;durP1;ratioP1;P1;durP2;ratioP2;P2;SDS_P1;SDS_P2;PMS_P1;PMS_P2;Temp;Humidity;BMP_temperature;BMP_pressure;BME280_temperature;BME280_humidity;BME280_pressure;Samples;Min_cycle;Max_cycle;Signal;HPM_P1;HPM_P2
2024/02/26 00:02:10;;;;;;;13.95;10.82;;;2.70;99.90;;;;;;5097795;28;20058;-67
2024/02/26 00:04:37;;;;;;;14.40;8.98;;;2.70;99.90;;;;;;5098437;28;20044;-66
2024/02/26 00:07:03;;;;;;;14.05;10.80;;;2.70;99.90;;;;;;5102156;28;20113;-63
2024/02/26 00:09:31;;;;;;;11.48;9.52;;;2.60;99.90;;;;;;5103419;28;20489;-62
2024/02/26 00:11:59;;;;;;;12.95;10.27;;;2.70;99.90;;;;;;5102911;28;20032;-62
2024/02/26 00:14:26;;;;;;;13.25;8.88;;;2.60;99.90;;;;;;5103095;28;20047;-64
2024/02/26 00:16:53;;;;;;;12.90;9.60;;;2.60;99.90;;;;;;5100208;28;20075;-69
2024/02/26 00:19:20;;;;;;;9.40;8.25;;;2.60;99.90;;;;;;5098479;28;20047;-63
2024/02/26 00:21:47;;;;;;;10.82;8.90;;;2.70;99.90;;;;;;5100618;28;20043;-63
2024/02/26 00:24:14;;;;;;;11.73;9.27;;;2.60;99.90;;;;;;5103150;28;20700;-70
2024/02/26 00:26:41;;;;;;;12.73;9.27;;;2.70;99.90;;;;;;5101579;28;20072;-61
2024/02/26 00:29:08;;;;;;;15.05;10.00;;;2.70;99.90;;;;;;5103896;28;20387;-62
2024/02/26 00:31:37;;;;;;;15.80;10.20;;;2.70;99.90;;;;;;5107308;28;20044;-63
2024/02/26 00:34:04;;;;;;;15.90;10.07;;;2.70;99.90;;;;;;5102837;28;20043;-64
2024/02/26 00:36:31;;;;;;;11.23;9.70;;;2.70;99.90;;;;;;5098416;28;20036;-69
2024/02/26 00:38:58;;;;;;;14.10;9.93;;;2.70;99.90;;;;;;5102109;28;20476;-65
2024/02/26 00:41:25;;;;;;;13.07;9.52;;;2.70;99.90;;;;;;5084745;28;20097;-61
2024/02/26 00:43:52;;;;;;;13.40;9.63;;;2.60;99.90;;;;;;5103211;28;20046;-62
2024/02/26 00:46:19;;;;;;;13.55;9.88;;;2.60;99.90;;;;;;5099647;28;20093;-64
2024/02/26 00:48:46;;;;;;;15.88;9.75;;;2.60;99.90;;;;;;5101015;28;20682;-62
2024/02/26 00:51:13;;;;;;;13.90;10.85;;;2.60;99.90;;;;;;5102485;28;20562;-68
2024/02/26 00:53:40;;;;;;;13.70;9.80;;;2.60;99.90;;;;;;5102070;28;20096;-69
2024/02/26 00:56:07;;;;;;;11.32;8.48;;;2.60;99.90;;;;;;5102150;28;20058;-61
2024/02/26 00:58:34;;;;;;;14.68;10.75;;;2.60;99.90;;;;;;5101055;28;20039;-61
2024/02/26 01:01:01;;;;;;;11.32;8.68;;;2.60;99.90;;;;;;5102036;28;20068;-61
2024/02/26 01:03:28;;;;;;;13.05;10.20;;;2.60;99.90;;;;;;5103106;28;20390;-62
2024/02/26 01:05:55;;;;;;;13.32;9.85;;;2.50;99.90;;;;;;5102284;28;20463;-62
2024/02/26 01:08:25;;;;;;;11.30;9.57;;;2.60;99.90;;;;;;5094747;28;20534;-70
2024/02/26 01:10:52;;;;;;;13.63;9.90;;;2.60;99.90;;;;;;5101691;28;20167;-67
2024/02/26 01:13:19;;;;;;;12.32;9.20;;;2.50;99.90;;;;;;5102111;28;20519;-63
2024/02/26 01:15:46;;;;;;;12.43;9.13;;;2.60;99.90;;;;;;5100675;28;20048;-69
2024/02/26 01:18:13;;;;;;;12.98;9.73;;;2.60;99.90;;;;;;5103995;28;20388;-63
2024/02/26 01:20:40;;;;;;;16.83;10.75;;;2.60;99.90;;;;;;5101046;28;20040;-63
2024/02/26 01:23:07;;;;;;;15.05;8.20;;;2.60;99.90;;;;;;5100805;28;20040;-69
2024/02/26 01:25:34;;;;;;;12.52;9.93;;;2.60;99.90;;;;;;5101859;28;20077;-64
2024/02/26 01:28:01;;;;;;;14.82;11.52;;;2.60;99.90;;;;;;5104804;28;20044;-63
2024/02/26 01:30:28;;;;;;;13.73;10.63;;;2.60;99.90;;;;;;5103841;28;20050;-68
2024/02/26 01:32:55;;;;;;;16.98;10.43;;;2.60;99.90;;;;;;5105982;28;20036;-64
2024/02/26 01:35:22;;;;;;;13.95;10.95;;;2.70;99.90;;;;;;5104832;28;20137;-62
2024/02/26 01:37:49;;;;;;;14.02;10.80;;;2.60;99.90;;;;;;5103145;28;20056;-70
2024/02/26 01:40:19;;;;;;;12.65;10.23;;;2.60;99.90;;;;;;5100943;28;20036;-63
2024/02/26 01:42:46;;;;;;;16.20;10.45;;;2.60;99.90;;;;;;5104732;28;20046;-66
2024/02/26 01:45:21;;;;;;;12.70;9.45;;;2.60;99.90;;;;;;5104599;28;20043;-73
2024/02/26 01:47:52;;;;;;;13.93;9.18;;;2.60;99.90;;;;;;5107427;28;20052;-65
2024/02/26 01:50:21;;;;;;;11.82;10.43;;;2.60;99.90;;;;;;5089833;28;20043;-60
2024/02/26 01:52:50;;;;;;;12.98;10.50;;;2.60;99.90;;;;;;5104237;28;20129;-65
2024/02/26 01:55:22;;;;;;;16.02;10.60;;;2.60;99.90;;;;;;5103788;28;20075;-63
2024/02/26 01:57:52;;;;;;;14.05;10.07;;;2.60;99.90;;;;;;5085277;28;20047;-69
2024/02/26 02:00:20;;;;;;;18.85;11.70;;;2.60;99.90;;;;;;5103661;28;20105;-61
2024/02/26 02:02:49;;;;;;;12.85;9.43;;;2.60;99.90;;;;;;5106725;28;20058;-63
2024/02/26 02:05:17;;;;;;;14.93;12.57;;;2.60;99.90;;;;;;5108093;28;20082;-66
2024/02/26 02:07:45;;;;;;;13.52;10.05;;;2.60;99.90;;;;;;5108736;28;20042;-61
2024/02/26 02:10:12;;;;;;;15.38;10.82;;;2.60;99.90;;;;;;5106833;28;20506;-61
2024/02/26 02:12:40;;;;;;;13.38;10.73;;;2.60;99.90;;;;;;5104173;28;20101;-64
2024/02/26 02:15:07;;;;;;;16.92;12.00;;;2.60;99.90;;;;;;5102991;28;20741;-64
2024/02/26 02:17:35;;;;;;;20.60;11.82;;;2.50;99.90;;;;;;5106301;28;20047;-68
2024/02/26 02:20:03;;;;;;;18.00;12.07;;;2.60;99.90;;;;;;5102575;28;20031;-62
2024/02/26 02:22:32;;;;;;;16.17;11.57;;;2.60;99.90;;;;;;5104240;28;20097;-61
2024/02/26 02:24:59;;;;;;;16.75;12.38;;;2.60;99.90;;;;;;5104244;28;20044;-61
2024/02/26 02:27:28;;;;;;;15.90;11.95;;;2.50;99.90;;;;;;5103601;28;20119;-62
2024/02/26 02:29:56;;;;;;;18.08;13.57;;;2.50;99.90;;;;;;5104743;28;20711;-66
2024/02/26 02:32:24;;;;;;;18.73;12.32;;;2.50;99.90;;;;;;5104365;28;20048;-62
2024/02/26 02:34:52;;;;;;;18.52;13.07;;;2.50;99.90;;;;;;5105593;28;20471;-61
2024/02/26 02:37:19;;;;;;;14.07;12.20;;;2.50;99.90;;;;;;5106197;28;20078;-62
2024/02/26 02:39:46;;;;;;;19.92;13.18;;;2.50;99.90;;;;;;5103314;28;20044;-66
2024/02/26 02:42:13;;;;;;;16.10;12.98;;;2.50;99.90;;;;;;5103383;28;20740;-63
2024/02/26 02:44:40;;;;;;;14.18;10.52;;;2.50;99.90;;;;;;5101341;28;20032;-63
2024/02/26 02:47:07;;;;;;;18.88;12.73;;;2.50;99.90;;;;;;5102703;28;20118;-66
2024/02/26 02:49:34;;;;;;;20.40;11.85;;;2.50;99.90;;;;;;5102759;28;20036;-67
2024/02/26 02:52:01;;;;;;;19.15;11.70;;;2.50;99.90;;;;;;5103161;28;20043;-63
2024/02/26 02:54:28;;;;;;;16.83;12.07;;;2.50;99.90;;;;;;5100893;28;20881;-66
2024/02/26 02:56:55;;;;;;;15.48;11.48;;;2.50;99.90;;;;;;5102253;28;20058;-73
2024/02/26 02:59:22;;;;;;;19.60;13.07;;;2.50;99.90;;;;;;5101209;28;20040;-61
2024/02/26 03:01:49;;;;;;;14.43;11.43;;;2.50;99.90;;;;;;5103240;28;20043;-63
2024/02/26 03:04:16;;;;;;;20.48;13.13;;;2.50;99.90;;;;;;5106919;28;20044;-61
2024/02/26 03:06:43;;;;;;;15.73;12.20;;;2.50;99.90;;;;;;5102454;28;20064;-62
2024/02/26 03:09:10;;;;;;;15.85;12.35;;;2.50;99.90;;;;;;5103662;28;20043;-61
2024/02/26 03:11:37;;;;;;;17.35;12.63;;;2.50;99.90;;;;;;5101644;28;20072;-65
2024/02/26 03:14:05;;;;;;;19.45;13.60;;;2.50;99.90;;;;;;5105465;28;20050;-60
2024/02/26 03:16:32;;;;;;;16.17;13.40;;;2.50;99.90;;;;;;5100866;28;20047;-68
2024/02/26 03:18:59;;;;;;;15.88;12.23;;;2.50;99.90;;;;;;5102519;28;20101;-61
2024/02/26 03:21:27;;;;;;;16.77;12.73;;;2.50;99.90;;;;;;5102125;28;20068;-64
2024/02/26 03:23:54;;;;;;;19.42;12.43;;;2.50;99.90;;;;;;5105463;28;20114;-62
2024/02/26 03:26:21;;;;;;;18.67;13.15;;;2.50;99.90;;;;;;5102897;28;20040;-61
2024/02/26 03:28:48;;;;;;;15.88;12.02;;;2.50;99.90;;;;;;5102489;28;20047;-63
2024/02/26 03:31:15;;;;;;;18.17;12.68;;;2.40;99.90;;;;;;5099610;28;20051;-61
2024/02/26 03:33:42;;;;;;;15.98;11.98;;;2.40;99.90;;;;;;5101754;28;20063;-61
2024/02/26 03:36:09;;;;;;;15.38;11.80;;;2.40;99.90;;;;;;5103331;28;20039;-61
2024/02/26 03:38:37;;;;;;;16.05;11.35;;;2.30;99.90;;;;;;5101934;28;20052;-65
2024/02/26 03:41:04;;;;;;;14.60;11.48;;;2.30;99.90;;;;;;5103499;28;20043;-64
2024/02/26 03:43:31;;;;;;;13.45;10.88;;;2.20;99.90;;;;;;5105616;28;20043;-62
2024/02/26 03:45:58;;;;;;;16.42;12.15;;;2.20;99.90;;;;;;5103824;28;20075;-62
2024/02/26 03:48:25;;;;;;;18.85;11.90;;;2.10;99.90;;;;;;5100756;28;20040;-66
2024/02/26 03:50:53;;;;;;;14.85;10.77;;;2.00;99.90;;;;;;5100560;28;20054;-66
2024/02/26 03:53:19;;;;;;;15.65;10.60;;;2.00;99.90;;;;;;5101819;28;20039;-62
2024/02/26 03:55:46;;;;;;;16.65;11.23;;;2.00;99.90;;;;;;5100213;28;20062;-67
2024/02/26 03:58:13;;;;;;;17.10;13.30;;;1.90;99.90;;;;;;5105655;28;20490;-62
2024/02/26 04:00:43;;;;;;;18.35;10.85;;;1.90;99.90;;;;;;5104372;28;20481;-60
2024/02/26 04:03:10;;;;;;;15.73;11.87;;;1.90;99.90;;;;;;5105572;28;20051;-62
2024/02/26 04:05:37;;;;;;;12.32;9.80;;;1.90;99.90;;;;;;5100370;28;20066;-67
2024/02/26 04:08:06;;;;;;;18.05;11.82;;;1.80;99.90;;;;;;5102374;28;20047;-63
2024/02/26 04:10:40;;;;;;;14.87;11.37;;;1.80;99.90;;;;;;5101865;28;20499;-68
2024/02/26 04:13:08;;;;;;;16.13;10.90;;;1.80;99.90;;;;;;5105910;28;20070;-63
2024/02/26 04:15:35;;;;;;;16.27;11.60;;;1.70;99.90;;;;;;5101541;28;20057;-66
2024/02/26 04:18:02;;;;;;;17.65;13.07;;;1.70;99.90;;;;;;5103885;28;20051;-63
2024/02/26 04:20:30;;;;;;;16.45;10.73;;;1.60;99.90;;;;;;5101721;28;20570;-65
2024/02/26 04:22:56;;;;;;;17.95;12.68;;;1.60;99.90;;;;;;5102472;28;20118;-65
2024/02/26 04:25:23;;;;;;;16.95;11.70;;;1.50;99.90;;;;;;5102994;28;20043;-63
2024/02/26 04:27:50;;;;;;;16.52;11.32;;;1.50;99.90;;;;;;5102305;28;20055;-63
2024/02/26 04:30:17;;;;;;;17.35;11.93;;;1.50;99.90;;;;;;5096321;28;20040;-64
2024/02/26 04:32:45;;;;;;;15.70;11.35;;;1.40;99.90;;;;;;5104846;28;20047;-62
2024/02/26 04:35:12;;;;;;;16.00;11.57;;;1.40;99.90;;;;;;5102521;28;20052;-66
2024/02/26 04:37:39;;;;;;;13.77;10.68;;;1.40;99.90;;;;;;5097974;28;20105;-68
2024/02/26 04:40:06;;;;;;;14.88;10.75;;;1.30;99.90;;;;;;5103897;28;20032;-63
2024/02/26 04:42:33;;;;;;;13.38;10.48;;;1.20;99.90;;;;;;5103476;28;20075;-66
2024/02/26 04:45:00;;;;;;;13.23;9.90;;;1.20;99.90;;;;;;5102814;28;20081;-66
2024/02/26 04:47:27;;;;;;;15.20;10.18;;;1.20;99.90;;;;;;5104169;28;20042;-63
2024/02/26 04:49:54;;;;;;;12.50;10.73;;;1.20;99.90;;;;;;5105612;28;20040;-63
2024/02/26 04:52:21;;;;;;;16.70;11.98;;;1.20;99.90;;;;;;5106841;28;20708;-66
2024/02/26 04:54:48;;;;;;;15.23;11.20;;;1.10;99.90;;;;;;5099194;28;20067;-62
2024/02/26 04:57:18;;;;;;;14.82;11.25;;;1.10;99.90;;;;;;5097517;28;20051;-63
2024/02/26 04:59:45;;;;;;;14.20;10.75;;;1.10;99.90;;;;;;5097738;28;20119;-64
2024/02/26 05:02:13;;;;;;;13.50;10.68;;;1.10;99.90;;;;;;5105019;28;20043;-61
2024/02/26 05:04:40;;;;;;;20.60;10.27;;;1.00;99.90;;;;;;5107334;28;20068;-62
2024/02/26 05:07:07;;;;;;;17.13;11.48;;;1.00;99.90;;;;;;5104224;28;20105;-61
2024/02/26 05:09:35;;;;;;;18.52;12.90;;;1.00;99.90;;;;;;5103845;28;20046;-62
2024/02/26 05:12:02;;;;;;;17.38;11.95;;;1.00;99.90;;;;;;5107054;28;20097;-63
2024/02/26 05:14:29;;;;;;;19.33;13.13;;;1.00;99.90;;;;;;5104755;28;20077;-61
2024/02/26 05:16:56;;;;;;;19.27;12.88;;;1.00;99.90;;;;;;5104715;28;20047;-64
2024/02/26 05:19:23;;;;;;;17.73;13.18;;;1.00;99.90;;;;;;5107435;28;20494;-66
2024/02/26 05:21:50;;;;;;;19.48;12.07;;;1.00;99.90;;;;;;5101265;28;20040;-61
2024/02/26 05:24:17;;;;;;;17.98;12.75;;;0.90;99.90;;;;;;5106886;28;20474;-66
2024/02/26 05:26:45;;;;;;;19.60;11.93;;;0.90;99.90;;;;;;5106213;28;20118;-61
2024/02/26 05:29:13;;;;;;;21.42;11.80;;;0.90;99.90;;;;;;5101717;28;20047;-62
2024/02/26 05:31:42;;;;;;;18.67;12.05;;;0.90;99.90;;;;;;5106551;28;20125;-62
2024/02/26 05:34:09;;;;;;;16.73;10.87;;;0.80;99.90;;;;;;5106581;28;20106;-61
2024/02/26 05:36:36;;;;;;;19.45;12.50;;;0.80;99.90;;;;;;5110251;28;20092;-63
2024/02/26 05:39:06;;;;;;;16.30;10.88;;;0.80;99.90;;;;;;5104949;28;20744;-60
2024/02/26 05:41:37;;;;;;;16.83;11.50;;;0.80;99.90;;;;;;5098897;28;20071;-68
2024/02/26 05:44:04;;;;;;;16.17;11.10;;;0.80;99.90;;;;;;5110366;28;20422;-64
2024/02/26 05:46:31;;;;;;;17.15;11.25;;;0.80;99.90;;;;;;5110362;28;20539;-60
2024/02/26 05:48:58;;;;;;;16.60;10.77;;;0.70;99.90;;;;;;5111082;28;20042;-59
2024/02/26 05:51:25;;;;;;;15.57;10.35;;;0.70;99.90;;;;;;5107273;28;20040;-60
2024/02/26 05:53:55;;;;;;;16.88;11.15;;;0.70;99.90;;;;;;5111767;28;20456;-61
2024/02/26 05:56:22;;;;;;;17.90;10.05;;;0.70;99.90;;;;;;5110882;28;20490;-60
2024/02/26 05:58:49;;;;;;;17.48;11.38;;;0.70;99.90;;;;;;5111916;28;20047;-61
2024/02/26 06:01:17;;;;;;;15.88;9.82;;;0.70;99.90;;;;;;5107789;28;20044;-60
2024/02/26 06:03:44;;;;;;;15.13;9.27;;;0.70;99.90;;;;;;5111242;28;20048;-59
2024/02/26 06:06:12;;;;;;;17.40;9.30;;;0.80;99.90;;;;;;5109130;28;20444;-61
2024/02/26 06:08:40;;;;;;;23.35;9.52;;;0.80;99.90;;;;;;5109365;28;20048;-61
2024/02/26 06:11:07;;;;;;;21.73;9.23;;;0.80;99.90;;;;;;5108046;28;20046;-62
2024/02/26 06:13:35;;;;;;;18.63;9.00;;;0.80;99.90;;;;;;5100172;28;20532;-63
2024/02/26 06:16:02;;;;;;;27.52;8.85;;;0.70;99.90;;;;;;5107776;28;20108;-61
2024/02/26 06:18:29;;;;;;;12.38;7.95;;;0.80;99.90;;;;;;5109048;28;20543;-62
2024/02/26 06:20:56;;;;;;;17.77;8.30;;;0.70;99.90;;;;;;5108769;28;20048;-62
2024/02/26 06:23:23;;;;;;;16.02;9.25;;;0.80;99.90;;;;;;5105653;28;20051;-62
2024/02/26 06:25:50;;;;;;;14.05;7.80;;;0.70;99.90;;;;;;5110188;28;20047;-62
2024/02/26 06:28:17;;;;;;;13.20;8.10;;;0.70;99.90;;;;;;5108364;28;20054;-60
2024/02/26 06:30:44;;;;;;;16.17;7.35;;;0.70;99.90;;;;;;5109961;28;20073;-63
2024/02/26 06:33:12;;;;;;;11.85;6.72;;;0.80;99.90;;;;;;5108978;28;20050;-61
2024/02/26 06:35:39;;;;;;;21.35;7.90;;;0.80;99.90;;;;;;5108383;28;20047;-62
2024/02/26 06:38:07;;;;;;;13.63;7.28;;;0.80;99.90;;;;;;5106476;28;20048;-67
2024/02/26 06:40:34;;;;;;;13.07;7.70;;;0.80;99.90;;;;;;5089530;28;20581;-61
2024/02/26 06:43:01;;;;;;;14.60;7.45;;;0.80;99.90;;;;;;5108445;28;20036;-61
2024/02/26 06:45:29;;;;;;;16.25;7.45;;;0.80;99.90;;;;;;5109087;28;20036;-63
2024/02/26 06:47:56;;;;;;;15.98;8.52;;;0.80;99.90;;;;;;5109406;28;20048;-65
2024/02/26 06:50:23;;;;;;;13.05;7.85;;;0.70;99.90;;;;;;5110572;28;20123;-61
2024/02/26 06:52:50;;;;;;;17.02;9.65;;;0.80;99.90;;;;;;5109796;28;20044;-60
2024/02/26 06:55:17;;;;;;;20.02;8.70;;;0.80;99.90;;;;;;5108338;28;20051;-63
2024/02/26 06:57:44;;;;;;;12.93;8.45;;;0.90;99.90;;;;;;5110377;28;20047;-64
2024/02/26 07:00:16;;;;;;;16.52;9.23;;;0.90;99.90;;;;;;5110079;28;20040;-61
2024/02/26 07:02:43;;;;;;;11.52;8.25;;;0.90;99.90;;;;;;5108557;28;20047;-64
2024/02/26 07:05:11;;;;;;;14.15;8.00;;;1.00;99.90;;;;;;5110422;28;20044;-66
2024/02/26 07:07:38;;;;;;;32.35;9.10;;;1.00;99.90;;;;;;5110730;28;20040;-63
2024/02/26 07:10:06;;;;;;;21.98;8.18;;;1.00;99.90;;;;;;5110388;28;20494;-71
2024/02/26 07:12:33;;;;;;;15.25;7.93;;;1.00;99.90;;;;;;5107823;28;20496;-68
2024/02/26 07:15:00;;;;;;;25.85;6.88;;;1.10;99.90;;;;;;5091410;28;20035;-63
2024/02/26 07:17:29;;;;;;;33.05;7.45;;;1.10;99.90;;;;;;5108739;28;20538;-63
2024/02/26 07:19:56;;;;;;;28.75;9.90;;;1.10;99.90;;;;;;5110957;28;20046;-63
2024/02/26 07:22:24;;;;;;;41.05;8.35;;;1.10;99.90;;;;;;5110156;28;20119;-61
2024/02/26 07:24:51;;;;;;;34.13;7.43;;;1.00;99.90;;;;;;5107600;28;20119;-62
2024/02/26 07:27:18;;;;;;;35.17;7.90;;;1.10;99.90;;;;;;5109609;28;20534;-61
2024/02/26 07:29:46;;;;;;;21.23;6.85;;;1.10;99.90;;;;;;5109970;28;20530;-61
2024/02/26 07:32:13;;;;;;;34.05;7.78;;;1.10;99.90;;;;;;5108685;28;20043;-61
2024/02/26 07:34:44;;;;;;;34.80;6.82;;;1.10;99.90;;;;;;5110311;28;20043;-66
2024/02/26 07:37:12;;;;;;;15.90;5.72;;;1.20;99.90;;;;;;5106030;28;20452;-66
2024/02/26 07:39:39;;;;;;;29.70;7.75;;;1.20;99.90;;;;;;5105874;28;20105;-62
2024/02/26 07:42:06;;;;;;;22.13;8.10;;;1.30;99.90;;;;;;5109526;28;20039;-64
2024/02/26 07:44:33;;;;;;;18.15;8.02;;;1.40;99.90;;;;;;5110189;28;20047;-68
2024/02/26 07:47:00;;;;;;;20.00;8.07;;;1.40;99.90;;;;;;5107511;28;20104;-69
2024/02/26 07:49:27;;;;;;;19.05;7.88;;;1.50;99.90;;;;;;5110002;28;20418;-65
2024/02/26 07:51:57;;;;;;;21.15;8.15;;;1.60;99.90;;;;;;5109200;28;20081;-67
2024/02/26 07:54:24;;;;;;;24.48;8.63;;;1.60;99.90;;;;;;5109094;28;20062;-63
2024/02/26 07:56:52;;;;;;;16.98;8.70;;;1.70;99.90;;;;;;5104600;28;20126;-63
2024/02/26 07:59:19;;;;;;;25.70;9.15;;;1.70;99.90;;;;;;5109174;28;20044;-63
2024/02/26 08:01:50;;;;;;;11.60;7.97;;;1.80;99.90;;;;;;5109756;28;20054;-63
2024/02/26 08:04:23;;;;;;;15.40;8.95;;;1.90;99.90;;;;;;5108739;28;20044;-64
2024/02/26 08:06:50;;;;;;;20.88;9.10;;;1.90;99.90;;;;;;5109237;28;20047;-68
2024/02/26 08:09:17;;;;;;;18.40;8.02;;;2.00;99.90;;;;;;5106078;28;20445;-62
2024/02/26 08:11:44;;;;;;;17.98;9.43;;;2.00;99.90;;;;;;5108542;28;20108;-63
2024/02/26 08:14:11;;;;;;;12.98;9.65;;;2.10;99.90;;;;;;5107458;28;20047;-64
2024/02/26 08:16:38;;;;;;;15.73;10.70;;;2.20;99.90;;;;;;5109536;28;20134;-62
2024/02/26 08:19:05;;;;;;;16.35;10.65;;;2.20;99.90;;;;;;5109075;28;20121;-64
2024/02/26 08:21:32;;;;;;;16.27;9.60;;;2.30;99.90;;;;;;5109356;28;20092;-71
2024/02/26 08:23:59;;;;;;;19.85;10.32;;;2.40;99.90;;;;;;5089362;28;20471;-63
2024/02/26 08:26:26;;;;;;;19.65;11.95;;;2.40;99.90;;;;;;5105223;28;20543;-64
2024/02/26 08:28:55;;;;;;;19.20;11.43;;;2.40;99.90;;;;;;5109032;28;20062;-63
2024/02/26 08:31:23;;;;;;;14.93;10.43;;;2.50;99.90;;;;;;5106486;28;20079;-62
2024/02/26 08:33:50;;;;;;;20.40;10.02;;;2.60;99.90;;;;;;5108022;28;20040;-62
2024/02/26 08:36:17;;;;;;;15.68;10.40;;;2.60;99.90;;;;;;5109235;28;20044;-63
2024/02/26 08:38:44;;;;;;;18.83;10.40;;;2.70;99.90;;;;;;5106076;28;20051;-63
2024/02/26 08:41:12;;;;;;;14.82;10.95;;;2.70;99.90;;;;;;5104096;28;20047;-67
2024/02/26 08:43:39;;;;;;;20.88;11.50;;;2.80;99.90;;;;;;5104644;28;20097;-71
2024/02/26 08:46:10;;;;;;;17.67;10.65;;;2.90;99.90;;;;;;5107053;28;20035;-62
2024/02/26 08:48:38;;;;;;;26.52;11.85;;;3.00;99.90;;;;;;5109313;28;20126;-72
2024/02/26 08:51:07;;;;;;;17.38;10.60;;;3.00;99.90;;;;;;5105149;28;20437;-61
2024/02/26 08:53:37;;;;;;;19.95;11.43;;;3.10;99.90;;;;;;5108180;28;20047;-69
2024/02/26 08:56:16;;;;;;;18.52;10.50;;;3.10;99.90;;;;;;5103642;28;20055;-62
2024/02/26 08:58:43;;;;;;;18.65;10.50;;;3.20;99.90;;;;;;5107747;28;20391;-67
2024/02/26 09:01:10;;;;;;;22.73;11.80;;;3.30;99.90;;;;;;5109061;28;20039;-61
2024/02/26 09:03:38;;;;;;;19.77;12.75;;;3.30;99.90;;;;;;5108340;28;20046;-73
2024/02/26 09:06:06;;;;;;;20.38;11.23;;;3.30;99.90;;;;;;5106834;28;20541;-66
2024/02/26 09:08:35;;;;;;;20.38;11.45;;;3.40;99.90;;;;;;5108462;28;20036;-64
2024/02/26 09:11:03;;;;;;;18.02;11.63;;;3.40;99.90;;;;;;5108948;28;20421;-64
2024/02/26 09:13:30;;;;;;;20.02;13.10;;;3.50;99.90;;;;;;5104878;28;20046;-62
2024/02/26 09:15:58;;;;;;;22.35;14.35;;;3.60;99.90;;;;;;5103477;28;20055;-62
2024/02/26 09:18:25;;;;;;;21.80;13.43;;;3.70;99.90;;;;;;5104238;28;20070;-66
2024/02/26 09:20:52;;;;;;;23.67;12.88;;;3.80;99.90;;;;;;5107601;28;20039;-65
2024/02/26 09:23:19;;;;;;;29.30;15.13;;;3.90;99.90;;;;;;5106871;28;20449;-61
2024/02/26 09:25:46;;;;;;;25.52;15.13;;;4.00;99.90;;;;;;5103445;28;20044;-65
2024/02/26 09:28:15;;;;;;;37.83;16.67;;;4.10;99.90;;;;;;5107744;28;20128;-64
2024/02/26 09:30:43;;;;;;;27.15;15.02;;;4.20;99.90;;;;;;5106188;28;20043;-62
2024/02/26 09:33:10;;;;;;;28.98;15.95;;;4.30;99.90;;;;;;5107771;28;20044;-65
2024/02/26 09:35:37;;;;;;;29.52;17.13;;;4.40;99.90;;;;;;5108452;28;20100;-64
2024/02/26 09:38:04;;;;;;;42.03;16.10;;;4.40;99.90;;;;;;5106459;28;20051;-60
2024/02/26 09:40:34;;;;;;;;;;;4.50;99.90;;;;;;5106057;28;20085;-68
2024/02/26 09:43:04;;;;;;;25.02;15.55;;;4.50;99.90;;;;;;5108236;28;20029;-67
2024/02/26 09:45:32;;;;;;;32.45;18.48;;;4.70;99.90;;;;;;5103831;28;20044;-61
2024/02/26 09:48:03;;;;;;;26.38;16.30;;;4.60;99.90;;;;;;5106760;28;20051;-61
2024/02/26 09:50:31;;;;;;;26.95;16.90;;;4.60;99.90;;;;;;5108240;28;20039;-62
2024/02/26 09:53:00;;;;;;;31.15;17.08;;;4.70;99.90;;;;;;5111377;28;20104;-60
2024/02/26 09:55:27;;;;;;;32.10;17.85;;;4.70;99.90;;;;;;5093623;28;20097;-63
2024/02/26 09:57:55;;;;;;;34.95;17.75;;;4.80;99.90;;;;;;5111589;28;20043;-65
2024/02/26 10:00:24;;;;;;;23.17;15.10;;;4.80;99.90;;;;;;5111290;28;20074;-73
2024/02/26 10:02:51;;;;;;;28.55;13.25;;;4.80;99.90;;;;;;5106723;28;20605;-63
2024/02/26 10:05:19;;;;;;;26.38;13.25;;;4.60;99.90;;;;;;5111797;28;20764;-62
2024/02/26 10:07:46;;;;;;;22.73;12.95;;;4.50;99.90;;;;;;5109654;28;20044;-73
2024/02/26 10:10:14;;;;;;;13.15;9.25;;;4.20;99.90;;;;;;5111299;28;20051;-64
2024/02/26 10:12:41;;;;;;;37.80;14.50;;;4.10;99.90;;;;;;5109572;28;20048;-65
2024/02/26 10:15:08;;;;;;;20.23;12.38;;;4.00;99.90;;;;;;5109466;28;20055;-62
2024/02/26 10:17:36;;;;;;;23.45;12.68;;;4.00;99.90;;;;;;5108033;28;20581;-65
2024/02/26 10:20:17;;;;;;;33.35;11.82;;;3.90;99.90;;;;;;5107612;28;20092;-66
2024/02/26 10:22:45;;;;;;;34.75;12.20;;;3.70;99.90;;;;;;5110759;28;20101;-67
2024/02/26 10:25:12;;;;;;;19.85;11.35;;;3.70;99.90;;;;;;5109972;28;20047;-66
2024/02/26 10:27:41;;;;;;;50.40;12.90;;;3.60;99.90;;;;;;5111624;28;20065;-64
2024/02/26 10:30:22;;;;;;;28.02;11.35;;;3.50;99.90;;;;;;5110380;28;20465;-61
2024/02/26 10:32:50;;;;;;;46.85;11.50;;;3.40;99.90;;;;;;5109381;28;20108;-61
2024/02/26 10:35:22;;;;;;;42.88;10.77;;;3.40;99.90;;;;;;5109632;28;20130;-63
2024/02/26 10:37:50;;;;;;;25.33;10.23;;;3.30;99.90;;;;;;5108541;28;20138;-62
2024/02/26 10:40:17;;;;;;;25.52;7.90;;;3.30;99.90;;;;;;5109708;28;20093;-65
2024/02/26 10:42:45;;;;;;;34.15;9.15;;;3.30;99.90;;;;;;5110433;28;20048;-63
2024/02/26 10:45:12;;;;;;;58.20;10.60;;;3.20;99.90;;;;;;5108338;28;20421;-62
2024/02/26 10:47:41;;;;;;;29.08;9.30;;;3.00;99.90;;;;;;5110785;28;20044;-63
2024/02/26 10:50:09;;;;;;;26.30;9.68;;;3.10;99.90;;;;;;5109072;28;20056;-67
2024/02/26 10:52:37;;;;;;;14.63;8.38;;;3.00;99.90;;;;;;5110149;28;20550;-69
2024/02/26 10:55:06;;;;;;;19.13;9.30;;;3.10;99.90;;;;;;5110009;28;20044;-68
2024/02/26 10:57:38;;;;;;;59.83;13.60;;;3.20;99.90;;;;;;5110194;28;20074;-65
2024/02/26 11:00:10;;;;;;;29.85;9.10;;;3.10;99.90;;;;;;5105761;28;20047;-64
2024/02/26 11:02:38;;;;;;;30.17;9.70;;;3.10;99.90;;;;;;5102280;28;20047;-69
2024/02/26 11:05:06;;;;;;;51.03;10.63;;;3.00;99.90;;;;;;5105400;28;20453;-61
2024/02/26 11:07:37;;;;;;;37.33;9.15;;;2.80;99.90;;;;;;5110149;28;20690;-70
2024/02/26 11:10:08;;;;;;;52.25;11.05;;;2.80;99.90;;;;;;5107425;28;20105;-61
2024/02/26 11:12:37;;;;;;;57.85;10.50;;;2.90;99.90;;;;;;5109542;28;20553;-72
2024/02/26 11:15:05;;;;;;;36.08;9.07;;;2.90;99.90;;;;;;5109385;28;20061;-61
2024/02/26 11:17:33;;;;;;;53.05;11.95;;;2.90;99.90;;;;;;5109384;28;20075;-70
2024/02/26 11:20:02;;;;;;;70.65;11.02;;;2.90;99.90;;;;;;5106458;28;20722;-61
2024/02/26 11:22:30;;;;;;;38.20;10.23;;;2.90;99.90;;;;;;5109841;28;20045;-70
2024/02/26 11:24:57;;;;;;;33.33;8.07;;;2.80;99.90;;;;;;5110292;28;20044;-63
2024/02/26 11:27:30;;;;;;;72.90;10.85;;;2.90;99.90;;;;;;5110248;28;20043;-65
2024/02/26 11:29:59;;;;;;;18.35;7.00;;;2.90;99.90;;;;;;5106671;28;20130;-62
2024/02/26 11:32:30;;;;;;;60.78;10.15;;;3.10;99.90;;;;;;5110875;28;20483;-62
2024/02/26 11:34:58;;;;;;;59.65;11.82;;;3.20;99.90;;;;;;5108362;28;20134;-74
2024/02/26 11:37:26;;;;;;;19.13;8.23;;;3.20;99.90;;;;;;5106785;28;20084;-65
2024/02/26 11:39:53;;;;;;;45.55;10.65;;;3.30;99.90;;;;;;5092101;28;20036;-65
2024/02/26 11:42:28;;;;;;;29.98;10.55;;;3.30;99.90;;;;;;5106973;28;20402;-70
2024/02/26 11:45:00;;;;;;;33.33;10.25;;;3.40;99.90;;;;;;5108648;28;20486;-64
2024/02/26 11:47:28;;;;;;;25.33;10.60;;;3.50;99.90;;;;;;5107830;28;20043;-62
2024/02/26 11:49:55;;;;;;;34.88;11.18;;;3.60;99.90;;;;;;5105735;28;20077;-65
2024/02/26 11:52:22;;;;;;;21.42;11.63;;;3.60;99.90;;;;;;5108784;28;20055;-61
2024/02/26 11:54:53;;;;;;;21.63;10.70;;;3.70;99.90;;;;;;5109586;28;20051;-62
2024/02/26 11:57:39;;;;;;;23.73;11.65;;;3.90;99.90;;;;;;5090989;28;20051;-61
2024/02/26 12:00:06;;;;;;;23.20;11.15;;;4.00;99.90;;;;;;5107266;28;20075;-63
2024/02/26 12:02:59;;;;;;;21.15;10.05;;;4.10;99.90;;;;;;5107284;28;20047;-69
2024/02/26 12:05:30;;;;;;;24.58;12.07;;;4.10;99.90;;;;;;5105979;28;20043;-74
2024/02/26 12:08:06;;;;;;;24.10;12.50;;;4.20;99.90;;;;;;5109586;28;20104;-65
2024/02/26 12:10:39;;;;;;;25.20;13.73;;;4.20;99.90;;;;;;5105803;28;20043;-67
2024/02/26 12:13:12;;;;;;;25.02;15.07;;;4.30;99.90;;;;;;5105129;28;20693;-64
2024/02/26 12:15:55;;;;;;;28.30;14.60;;;4.50;99.90;;;;;;5108751;28;20047;-64
2024/02/26 12:18:23;;;;;;;32.70;16.90;;;4.50;99.90;;;;;;5108920;28;20715;-62
2024/02/26 12:21:03;;;;;;;33.45;16.33;;;4.60;99.90;;;;;;5107666;28;20050;-63
2024/02/26 12:23:31;;;;;;;20.88;13.05;;;4.70;99.90;;;;;;5106657;28;20044;-64
2024/02/26 12:26:02;;;;;;;23.48;15.32;;;4.70;99.90;;;;;;5104657;28;20122;-63
2024/02/26 12:28:33;;;;;;;23.17;13.65;;;4.70;99.90;;;;;;5108700;28;20048;-72
2024/02/26 12:31:00;;;;;;;25.88;15.20;;;4.70;99.90;;;;;;5108314;28;20047;-67
2024/02/26 12:33:28;;;;;;;29.50;14.55;;;4.70;99.90;;;;;;5109097;28;20048;-64
2024/02/26 12:35:57;;;;;;;22.33;13.20;;;4.70;99.90;;;;;;5108635;28;20051;-62
2024/02/26 12:38:24;;;;;;;21.85;13.18;;;4.70;99.90;;;;;;5108277;28;20162;-64
2024/02/26 12:40:51;;;;;;;39.25;14.73;;;4.70;99.90;;;;;;5105212;28;20118;-64
2024/02/26 12:43:18;;;;;;;31.30;14.73;;;4.60;99.90;;;;;;5104865;28;20051;-65
2024/02/26 12:45:47;;;;;;;29.73;13.02;;;4.60;99.90;;;;;;5103580;28;20039;-63